Time;durP1;ratioP1;P1;durP2;ratioP2;P2;SDS_P1;SDS_P2;PMS_P1;PMS_P2;Temp;Humidity;BMP_temperature;BMP_pressure;BME280_temperature;BME280_humidity;BME280_pressure;Samples;Min_cycle;Max_cycle;Signal;HPM_P1;HPM_P2
2023/10/26 00:01:27;;;;;;;18.47;17.17;;;12.30;99.90;;;;;;4843047;29;20231;-41
2023/10/26 00:03:53;;;;;;;18.50;17.30;;;12.30;99.90;;;;;;4862815;29;20239;-42
2023/10/26 00:06:19;;;;;;;18.30;17.10;;;12.40;99.90;;;;;;4856082;29;20214;-43
2023/10/26 00:08:44;;;;;;;18.33;17.00;;;12.40;99.90;;;;;;4858662;29;20273;-42
2023/10/26 00:11:10;;;;;;;19.13;17.90;;;12.40;99.90;;;;;;4850549;29;20244;-44
2023/10/26 00:13:36;;;;;;;18.23;17.03;;;12.40;99.90;;;;;;4860349;29;20228;-44
2023/10/26 00:16:01;;;;;;;19.23;17.93;;;12.40;99.90;;;;;;4853728;29;20261;-42
2023/10/26 00:18:27;;;;;;;19.93;18.53;;;12.40;99.90;;;;;;4855290;29;20242;-43
2023/10/26 00:20:57;;;;;;;19.70;18.20;;;12.40;99.90;;;;;;4855913;29;20223;-42
2023/10/26 00:23:23;;;;;;;20.00;18.70;;;12.40;99.90;;;;;;4845423;29;20622;-43
2023/10/26 00:25:48;;;;;;;20.00;18.60;;;12.40;99.90;;;;;;4861575;29;20544;-47
2023/10/26 00:28:14;;;;;;;20.23;18.83;;;12.40;99.90;;;;;;4855493;29;20267;-44
2023/10/26 00:30:40;;;;;;;19.50;18.13;;;12.40;99.90;;;;;;4856742;29;20211;-51
2023/10/26 00:33:05;;;;;;;19.77;18.47;;;12.40;99.90;;;;;;4867649;29;20838;-47
2023/10/26 00:35:31;;;;;;;20.80;19.30;;;12.50;99.90;;;;;;4854287;29;20220;-42
2023/10/26 00:37:56;;;;;;;20.90;19.40;;;12.50;99.90;;;;;;4857997;29;20192;-43
2023/10/26 00:40:22;;;;;;;20.23;18.73;;;12.50;99.90;;;;;;4860484;29;20199;-41
2023/10/26 00:42:48;;;;;;;20.50;19.07;;;12.50;99.90;;;;;;4855331;29;20224;-42
2023/10/26 00:45:13;;;;;;;20.47;19.00;;;12.60;99.90;;;;;;4860332;29;21031;-48
2023/10/26 00:47:39;;;;;;;20.47;18.67;;;12.60;99.90;;;;;;4866378;29;20196;-44
2023/10/26 00:50:06;;;;;;;20.23;18.77;;;12.60;99.90;;;;;;4841103;29;20664;-41
2023/10/26 00:52:35;;;;;;;19.53;18.23;;;12.70;99.90;;;;;;4853925;29;20659;-41
2023/10/26 00:55:03;;;;;;;19.90;18.50;;;12.70;99.90;;;;;;4859093;29;20519;-43
2023/10/26 00:57:30;;;;;;;20.20;18.63;;;12.70;99.90;;;;;;4849763;29;21791;-47
2023/10/26 00:59:56;;;;;;;19.97;18.67;;;12.80;99.90;;;;;;4854384;29;20512;-43
2023/10/26 01:02:24;;;;;;;20.37;18.77;;;12.70;99.90;;;;;;4858919;29;20543;-41
2023/10/26 01:04:50;;;;;;;19.37;17.97;;;12.70;99.90;;;;;;4857333;29;20447;-48
2023/10/26 01:07:15;;;;;;;19.70;18.23;;;12.80;99.90;;;;;;4860736;29;20440;-42
2023/10/26 01:09:42;;;;;;;19.90;18.50;;;12.80;99.90;;;;;;4839241;29;20536;-44
2023/10/26 01:12:08;;;;;;;19.30;17.90;;;12.80;99.90;;;;;;4855950;29;20315;-45
2023/10/26 01:14:34;;;;;;;18.93;17.63;;;12.80;99.90;;;;;;4854657;29;20436;-42
2023/10/26 01:17:01;;;;;;;19.33;18.03;;;12.80;99.90;;;;;;4852364;29;20235;-43
2023/10/26 01:19:41;;;;;;;18.70;17.50;;;12.80;99.90;;;;;;4843397;29;20441;-42
2023/10/26 01:22:07;;;;;;;18.97;17.70;;;12.80;99.90;;;;;;4862916;29;20428;-43
2023/10/26 01:24:33;;;;;;;19.27;18.03;;;12.80;99.90;;;;;;4849039;29;20630;-42
2023/10/26 01:26:58;;;;;;;18.37;17.17;;;12.80;99.90;;;;;;4855596;29;20204;-47
2023/10/26 01:29:24;;;;;;;19.50;18.23;;;12.70;99.90;;;;;;4856862;29;20454;-41
2023/10/26 01:31:49;;;;;;;18.73;17.60;;;12.70;99.90;;;;;;4863858;29;20187;-41
2023/10/26 01:34:15;;;;;;;19.13;17.80;;;12.60;99.90;;;;;;4857921;29;20318;-42
2023/10/26 01:36:40;;;;;;;19.43;18.13;;;12.60;99.90;;;;;;4857555;29;20252;-44
2023/10/26 01:39:06;;;;;;;20.03;18.70;;;12.60;99.90;;;;;;4862147;29;20632;-44
2023/10/26 01:41:32;;;;;;;19.67;18.30;;;12.60;99.90;;;;;;4859367;29;20192;-42
2023/10/26 01:44:00;;;;;;;18.37;17.17;;;12.60;99.90;;;;;;4866425;29;20561;-46
2023/10/26 01:46:25;;;;;;;18.87;17.67;;;12.50;99.90;;;;;;4861678;29;20447;-43
2023/10/26 01:48:51;;;;;;;18.20;17.00;;;12.50;99.90;;;;;;4856385;29;21342;-42
2023/10/26 01:51:16;;;;;;;18.53;17.40;;;12.50;99.90;;;;;;4852537;29;20207;-48
2023/10/26 01:53:42;;;;;;;18.33;17.10;;;12.50;99.90;;;;;;4847279;29;20344;-41
2023/10/26 01:56:08;;;;;;;17.73;16.53;;;12.50;99.90;;;;;;4850626;29;20179;-43
2023/10/26 01:58:34;;;;;;;19.40;18.10;;;12.50;99.90;;;;;;4857428;29;20952;-42
2023/10/26 02:00:59;;;;;;;18.33;16.93;;;12.50;99.90;;;;;;4853178;29;20239;-44
2023/10/26 02:03:25;;;;;;;18.20;17.00;;;12.50;99.90;;;;;;4853857;29;20227;-43
2023/10/26 02:05:51;;;;;;;18.17;17.00;;;12.50;99.90;;;;;;4853954;29;20494;-42
2023/10/26 02:08:16;;;;;;;19.57;18.07;;;12.50;99.90;;;;;;4839592;29;20188;-43
2023/10/26 02:10:42;;;;;;;19.33;17.93;;;12.50;99.90;;;;;;4851447;29;20200;-44
2023/10/26 02:13:08;;;;;;;19.50;18.00;;;12.40;99.90;;;;;;4854834;29;20192;-43
2023/10/26 02:15:33;;;;;;;19.60;18.30;;;12.40;99.90;;;;;;4857292;29;20507;-46
2023/10/26 02:17:59;;;;;;;19.23;17.93;;;12.40;99.90;;;;;;4855139;29;20260;-41
2023/10/26 02:20:24;;;;;;;19.10;17.80;;;12.30;99.90;;;;;;4852023;29;20203;-43
2023/10/26 02:22:50;;;;;;;20.83;19.27;;;12.30;99.90;;;;;;4855606;29;20215;-45
2023/10/26 02:25:15;;;;;;;20.67;18.93;;;12.30;99.90;;;;;;4859576;29;20266;-42
2023/10/26 02:27:41;;;;;;;19.37;18.07;;;12.30;99.90;;;;;;4852562;29;20185;-45
2023/10/26 02:30:07;;;;;;;18.93;17.73;;;12.20;99.90;;;;;;4853337;29;20185;-43
2023/10/26 02:32:34;;;;;;;19.67;18.37;;;12.20;99.90;;;;;;4850426;29;20188;-42
2023/10/26 02:34:59;;;;;;;19.83;18.23;;;12.10;99.90;;;;;;4860920;29;20919;-42
2023/10/26 02:37:25;;;;;;;20.00;18.60;;;12.20;99.90;;;;;;4859890;29;20424;-44
2023/10/26 02:39:50;;;;;;;19.90;18.50;;;12.10;99.90;;;;;;4856522;29;20184;-42
2023/10/26 02:42:16;;;;;;;18.57;17.37;;;12.10;99.90;;;;;;4858789;29;20271;-44
2023/10/26 02:44:42;;;;;;;19.07;17.73;;;12.20;99.90;;;;;;4863783;29;20212;-44
2023/10/26 02:47:07;;;;;;;20.00;18.60;;;12.10;99.90;;;;;;4860895;29;20700;-41
2023/10/26 02:49:33;;;;;;;19.00;17.60;;;12.10;99.90;;;;;;4863043;29;20668;-44
2023/10/26 02:51:59;;;;;;;18.70;17.40;;;12.10;99.90;;;;;;4856636;29;20187;-44
2023/10/26 02:54:28;;;;;;;19.70;18.30;;;12.10;99.90;;;;;;4862492;29;20730;-46
2023/10/26 02:56:54;;;;;;;18.70;17.40;;;12.10;99.90;;;;;;4853715;29;20447;-48
2023/10/26 02:59:20;;;;;;;18.97;17.67;;;12.10;99.90;;;;;;4858819;29;20523;-42
2023/10/26 03:01:46;;;;;;;18.97;17.67;;;12.10;99.90;;;;;;4852101;29;20436;-41
2023/10/26 03:04:11;;;;;;;18.57;17.27;;;12.10;99.90;;;;;;4853543;29;20243;-43
2023/10/26 03:06:38;;;;;;;18.40;17.10;;;12.10;99.90;;;;;;4856869;29;20912;-41
2023/10/26 03:09:05;;;;;;;17.70;16.50;;;12.10;99.90;;;;;;4860150;29;20977;-42
2023/10/26 03:11:33;;;;;;;17.20;16.10;;;12.10;99.90;;;;;;4849854;29;20481;-44
2023/10/26 03:13:59;;;;;;;17.77;16.57;;;12.00;99.90;;;;;;4858246;29;20448;-43
2023/10/26 03:16:24;;;;;;;17.37;16.17;;;12.10;99.90;;;;;;4855848;29;20445;-43
2023/10/26 03:18:50;;;;;;;18.17;16.73;;;12.10;99.90;;;;;;4864523;29;20324;-45
2023/10/26 03:21:16;;;;;;;18.30;16.80;;;12.10;99.90;;;;;;4864260;29;20188;-42
2023/10/26 03:23:42;;;;;;;18.20;16.90;;;12.10;99.90;;;;;;4859741;29;20216;-44
2023/10/26 03:26:12;;;;;;;17.70;16.50;;;12.10;99.90;;;;;;4864082;29;20594;-43
2023/10/26 03:28:37;;;;;;;17.23;16.10;;;12.10;99.90;;;;;;4850855;29;20188;-43
2023/10/26 03:31:09;;;;;;;17.83;16.67;;;12.20;99.90;;;;;;4849181;29;20428;-45
2023/10/26 03:33:35;;;;;;;17.50;16.30;;;12.20;99.90;;;;;;4851887;29;20201;-42
2023/10/26 03:36:00;;;;;;;16.60;15.47;;;12.20;99.90;;;;;;4862491;29;20432;-43
2023/10/26 03:38:26;;;;;;;16.40;15.40;;;12.20;99.90;;;;;;4856688;29;20191;-45
2023/10/26 03:40:51;;;;;;;16.50;15.40;;;12.20;99.90;;;;;;4868498;29;20195;-46
2023/10/26 03:43:17;;;;;;;14.90;14.00;;;12.20;99.90;;;;;;4865841;29;20254;-48
2023/10/26 03:45:45;;;;;;;15.03;14.23;;;12.20;99.90;;;;;;4857525;29;20682;-42
2023/10/26 03:48:11;;;;;;;14.00;13.30;;;12.20;99.90;;;;;;4866952;29;20661;-46
2023/10/26 03:50:36;;;;;;;14.37;13.57;;;12.20;99.90;;;;;;4862155;29;20424;-46
2023/10/26 03:53:03;;;;;;;13.73;13.03;;;12.20;99.90;;;;;;4865259;29;20798;-45
2023/10/26 03:55:28;;;;;;;12.97;12.37;;;12.20;99.90;;;;;;4856050;29;20448;-43
2023/10/26 03:57:54;;;;;;;12.70;12.10;;;12.20;99.90;;;;;;4849947;29;20221;-44
2023/10/26 04:00:19;;;;;;;12.30;11.80;;;12.20;99.90;;;;;;4862251;29;20659;-44
2023/10/26 04:02:45;;;;;;;12.17;11.67;;;12.20;99.90;;;;;;4857410;29;20606;-43
2023/10/26 04:05:11;;;;;;;12.20;11.70;;;12.20;99.90;;;;;;4860009;29;20188;-41
2023/10/26 04:07:38;;;;;;;13.20;12.60;;;12.30;99.90;;;;;;4862244;29;20220;-45
2023/10/26 04:10:06;;;;;;;13.37;12.50;;;12.20;99.90;;;;;;4851838;29;20195;-42
2023/10/26 04:12:31;;;;;;;13.40;12.80;;;12.10;99.90;;;;;;4858341;29;20481;-39
2023/10/26 04:14:57;;;;;;;13.30;12.70;;;12.10;99.90;;;;;;4852762;29;21283;-41
2023/10/26 04:17:22;;;;;;;12.70;12.20;;;12.10;99.90;;;;;;4850502;29;20194;-41
2023/10/26 04:19:48;;;;;;;11.90;11.40;;;12.00;99.90;;;;;;4851374;29;20233;-42
2023/10/26 04:22:14;;;;;;;12.67;12.10;;;12.00;99.90;;;;;;4841160;29;20224;-41
2023/10/26 04:24:39;;;;;;;12.17;11.67;;;12.00;99.90;;;;;;4856491;29;21279;-43
2023/10/26 04:27:05;;;;;;;12.70;12.20;;;12.00;99.90;;;;;;4857805;29;20185;-47
2023/10/26 04:29:30;;;;;;;13.17;12.47;;;11.90;99.90;;;;;;4854508;29;20184;-45
2023/10/26 04:31:56;;;;;;;12.50;12.00;;;11.90;99.90;;;;;;4851391;29;20272;-43
2023/10/26 04:34:22;;;;;;;12.30;11.80;;;11.90;99.90;;;;;;4857975;29;20281;-43
2023/10/26 04:36:48;;;;;;;12.77;12.20;;;11.90;99.90;;;;;;4865573;29;21070;-50
2023/10/26 04:39:15;;;;;;;13.17;12.47;;;11.90;99.90;;;;;;4853787;29;20546;-44
2023/10/26 04:41:41;;;;;;;12.80;12.20;;;11.90;99.90;;;;;;4849287;29;20196;-45
2023/10/26 04:44:07;;;;;;;12.47;11.97;;;11.90;99.90;;;;;;4859598;29;20480;-44
2023/10/26 04:46:33;;;;;;;12.17;11.67;;;11.90;99.90;;;;;;4850438;29;20188;-41
2023/10/26 04:48:58;;;;;;;11.80;11.30;;;11.90;99.90;;;;;;4861157;29;20288;-41
2023/10/26 04:51:24;;;;;;;11.17;10.67;;;11.90;99.90;;;;;;4849647;29;20844;-41
2023/10/26 04:53:50;;;;;;;11.90;11.40;;;11.90;99.90;;;;;;4847405;29;20306;-44
2023/10/26 04:56:16;;;;;;;11.37;10.87;;;11.90;99.90;;;;;;4851035;29;20903;-42
2023/10/26 04:58:43;;;;;;;11.80;11.30;;;11.90;99.90;;;;;;4858374;29;20448;-41
2023/10/26 05:01:10;;;;;;;11.40;10.90;;;11.90;99.90;;;;;;4849979;29;20208;-44
2023/10/26 05:03:37;;;;;;;11.43;10.93;;;12.00;99.90;;;;;;4851314;29;20486;-46
2023/10/26 05:06:02;;;;;;;11.40;10.80;;;12.00;99.90;;;;;;4858866;29;20484;-41
2023/10/26 05:08:28;;;;;;;11.50;11.00;;;12.00;99.90;;;;;;4863943;29;20837;-43
2023/10/26 05:10:54;;;;;;;10.33;9.93;;;12.00;99.90;;;;;;4858194;29;20578;-43
2023/10/26 05:13:19;;;;;;;10.90;10.50;;;12.00;99.90;;;;;;4866639;29;20252;-40
2023/10/26 05:15:45;;;;;;;11.30;10.80;;;12.00;99.90;;;;;;4858685;29;20220;-46
2023/10/26 05:18:11;;;;;;;10.90;10.50;;;12.00;99.90;;;;;;4865764;29;20187;-40
2023/10/26 05:20:37;;;;;;;11.27;10.87;;;12.10;99.90;;;;;;4857795;29;20184;-43
2023/10/26 05:23:05;;;;;;;11.07;10.60;;;12.00;99.90;;;;;;4860174;29;20215;-41
2023/10/26 05:25:31;;;;;;;11.00;10.60;;;12.00;99.90;;;;;;4865768;29;20926;-39
2023/10/26 05:27:57;;;;;;;11.37;10.87;;;12.00;99.90;;;;;;4865961;29;20463;-48
2023/10/26 05:30:22;;;;;;;10.30;9.80;;;12.10;99.90;;;;;;4861620;29;20515;-42
2023/10/26 05:32:48;;;;;;;10.03;9.63;;;12.10;99.90;;;;;;4851827;29;20683;-43
2023/10/26 05:35:14;;;;;;;10.93;10.43;;;12.10;99.90;;;;;;4853999;29;20184;-41
2023/10/26 05:37:39;;;;;;;10.77;10.27;;;12.20;77.80;;;;;;4849391;29;20191;-43
2023/10/26 05:40:06;;;;;;;10.20;9.80;;;12.20;60.40;;;;;;4850230;29;20176;-41
2023/10/26 05:42:31;;;;;;;11.03;10.63;;;12.20;62.80;;;;;;4853028;29;20181;-42
2023/10/26 05:44:57;;;;;;;11.20;10.70;;;12.20;53.90;;;;;;4854597;29;20468;-40
2023/10/26 05:47:23;;;;;;;11.20;10.70;;;12.20;43.00;;;;;;4848117;29;20742;-41
2023/10/26 05:49:49;;;;;;;10.30;9.90;;;12.20;49.10;;;;;;4850253;29;20233;-40
2023/10/26 05:52:15;;;;;;;11.20;10.70;;;12.30;57.10;;;;;;4849638;29;20462;-40
2023/10/26 05:54:41;;;;;;;10.73;10.23;;;12.20;42.10;;;;;;4851730;29;20679;-40
2023/10/26 05:57:06;;;;;;;10.43;10.03;;;12.20;36.50;;;;;;4848029;29;20437;-41
2023/10/26 05:59:32;;;;;;;10.60;10.10;;;12.20;20.10;;;;;;4848443;29;20192;-41
2023/10/26 06:01:58;;;;;;;10.40;10.00;;;12.20;28.20;;;;;;4844105;29;20196;-43
2023/10/26 06:04:23;;;;;;;9.47;9.07;;;12.20;33.60;;;;;;4856204;29;20464;-40
2023/10/26 06:06:49;;;;;;;10.00;9.60;;;12.20;20.40;;;;;;4854011;29;20559;-42
2023/10/26 06:09:15;;;;;;;9.60;9.20;;;12.20;18.10;;;;;;4847589;29;20743;-40
2023/10/26 06:11:40;;;;;;;10.10;9.70;;;12.20;10.90;;;;;;4850257;29;20236;-40
2023/10/26 06:14:06;;;;;;;10.37;9.97;;;12.20;19.20;;;;;;4833531;29;20280;-43
2023/10/26 06:16:32;;;;;;;10.47;10.07;;;12.20;3.20;;;;;;4853600;29;20199;-41
2023/10/26 06:18:57;;;;;;;9.63;9.23;;;12.20;9.10;;;;;;4855003;29;20490;-44
2023/10/26 06:21:23;;;;;;;10.10;9.70;;;12.20;7.30;;;;;;4852932;29;20210;-40
2023/10/26 06:23:48;;;;;;;9.50;9.13;;;12.20;1.00;;;;;;4853026;29;20647;-44
2023/10/26 06:26:14;;;;;;;10.10;9.70;;;12.30;1.00;;;;;;4836152;29;20516;-42
2023/10/26 06:28:40;;;;;;;9.90;9.40;;;12.30;1.00;;;;;;4852462;29;20196;-41
2023/10/26 06:31:10;;;;;;;10.20;9.80;;;12.20;1.00;;;;;;4853662;29;20538;-41
2023/10/26 06:33:35;;;;;;;10.13;9.70;;;12.20;1.00;;;;;;4851037;29;20447;-41
2023/10/26 06:36:02;;;;;;;10.47;10.07;;;12.30;1.00;;;;;;4853216;29;20964;-43
2023/10/26 06:38:28;;;;;;;11.00;10.50;;;12.20;1.00;;;;;;4857234;29;20243;-39
2023/10/26 06:40:54;;;;;;;11.20;10.70;;;12.30;1.00;;;;;;4853505;29;20445;-40
2023/10/26 06:43:20;;;;;;;10.90;10.43;;;12.30;1.00;;;;;;4854468;29;20212;-44
2023/10/26 06:45:46;;;;;;;11.00;10.50;;;12.30;1.00;;;;;;4842339;29;20890;-41
2023/10/26 06:48:11;;;;;;;11.37;10.87;;;12.30;1.00;;;;;;4847528;29;20436;-40
2023/10/26 06:50:37;;;;;;;12.17;11.10;;;12.40;1.00;;;;;;4853321;29;20189;-41
2023/10/26 06:53:03;;;;;;;10.50;10.10;;;12.40;1.00;;;;;;4853779;29;20196;-43
2023/10/26 06:55:33;;;;;;;11.40;10.90;;;12.40;1.00;;;;;;4863328;29;20195;-41
2023/10/26 06:57:59;;;;;;;10.80;10.30;;;12.40;1.00;;;;;;4853882;29;20192;-40
2023/10/26 07:00:25;;;;;;;11.20;10.70;;;12.50;1.00;;;;;;4860363;29;20455;-41
2023/10/26 07:02:50;;;;;;;11.00;10.50;;;12.50;1.00;;;;;;4850964;29;20208;-45
2023/10/26 07:05:16;;;;;;;11.50;10.77;;;12.40;1.00;;;;;;4853386;29;20180;-40
2023/10/26 07:07:42;;;;;;;10.93;10.43;;;12.40;1.00;;;;;;4835984;29;20201;-48
2023/10/26 07:10:14;;;;;;;10.47;9.97;;;12.50;1.00;;;;;;4855661;29;20192;-40
2023/10/26 07:12:40;;;;;;;11.00;10.50;;;12.50;1.00;;;;;;4859569;29;20235;-40
2023/10/26 07:15:06;;;;;;;9.97;9.57;;;12.40;1.00;;;;;;4857644;29;20445;-40
2023/10/26 07:17:34;;;;;;;10.50;10.00;;;12.50;1.00;;;;;;4857208;29;20192;-40
2023/10/26 07:20:02;;;;;;;10.90;10.43;;;12.50;1.00;;;;;;4858997;29;20445;-42
2023/10/26 07:22:27;;;;;;;11.73;11.23;;;12.50;1.00;;;;;;4852892;29;21559;-41
2023/10/26 07:24:53;;;;;;;11.50;11.00;;;12.60;1.00;;;;;;4853772;29;20479;-43
2023/10/26 07:27:19;;;;;;;11.40;10.90;;;12.60;1.00;;;;;;4855841;29;20204;-41
2023/10/26 07:29:46;;;;;;;11.20;10.70;;;12.60;1.00;;;;;;4864108;29;20192;-41
2023/10/26 07:32:12;;;;;;;11.23;10.73;;;12.60;1.00;;;;;;4836125;29;20966;-40
2023/10/26 07:34:37;;;;;;;11.40;10.90;;;12.70;1.00;;;;;;4852128;29;20444;-44
2023/10/26 07:37:03;;;;;;;11.07;10.60;;;12.80;1.00;;;;;;4857084;29;20444;-41
2023/10/26 07:39:33;;;;;;;12.40;11.70;;;12.70;1.00;;;;;;4849912;29;20200;-39
2023/10/26 07:41:58;;;;;;;12.00;11.50;;;12.70;1.00;;;;;;4849653;29;20192;-39
2023/10/26 07:44:24;;;;;;;11.47;10.97;;;12.80;1.00;;;;;;4855042;29;20483;-39
2023/10/26 07:46:49;;;;;;;11.60;11.10;;;12.80;1.00;;;;;;4858446;29;20880;-40
2023/10/26 07:49:15;;;;;;;11.80;11.20;;;12.90;1.00;;;;;;4865765;29;20196;-41
2023/10/26 07:51:41;;;;;;;10.97;10.57;;;12.90;1.00;;;;;;4856490;29;20215;-43
2023/10/26 07:54:06;;;;;;;11.13;10.63;;;12.90;1.00;;;;;;4855871;29;20200;-40
2023/10/26 07:56:32;;;;;;;10.50;10.10;;;13.00;1.00;;;;;;4861464;29;20847;-41
2023/10/26 07:58:58;;;;;;;11.30;10.60;;;13.00;1.00;;;;;;4851307;29;20196;-40
2023/10/26 08:01:24;;;;;;;11.33;10.83;;;13.00;1.00;;;;;;4851641;29;20211;-41
2023/10/26 08:03:49;;;;;;;11.53;11.00;;;13.00;1.00;;;;;;4851821;29;20479;-41
2023/10/26 08:06:15;;;;;;;11.63;11.13;;;12.90;1.00;;;;;;4848573;29;20204;-40
2023/10/26 08:08:41;;;;;;;10.53;10.03;;;13.10;1.00;;;;;;4850920;29;20276;-40
2023/10/26 08:11:08;;;;;;;11.00;10.50;;;13.00;1.00;;;;;;4852548;29;20272;-40
2023/10/26 08:13:33;;;;;;;10.37;9.97;;;13.10;1.00;;;;;;4856438;29;20200;-39
2023/10/26 08:16:00;;;;;;;11.30;10.80;;;12.90;1.00;;;;;;4853627;29;20445;-40
2023/10/26 08:18:26;;;;;;;12.47;11.87;;;13.00;1.00;;;;;;4852222;29;20204;-42
2023/10/26 08:20:52;;;;;;;11.40;10.90;;;13.00;1.00;;;;;;4866128;29;20813;-41
2023/10/26 08:23:18;;;;;;;11.33;10.73;;;12.90;1.00;;;;;;4859274;29;20547;-47
2023/10/26 08:25:43;;;;;;;11.10;10.60;;;13.00;1.00;;;;;;4857290;29;20455;-43
2023/10/26 08:28:09;;;;;;;11.57;10.97;;;13.10;1.00;;;;;;4856773;29;20452;-40
2023/10/26 08:30:37;;;;;;;11.60;11.10;;;13.10;1.00;;;;;;4860339;29;20224;-41
2023/10/26 08:33:04;;;;;;;11.47;10.97;;;13.10;1.00;;;;;;4857631;29;20351;-41
2023/10/26 08:35:30;;;;;;;11.37;10.87;;;13.20;1.00;;;;;;4866146;29;20420;-40
2023/10/26 08:37:56;;;;;;;11.43;10.93;;;13.20;1.00;;;;;;4861771;29;20437;-40
2023/10/26 08:40:22;;;;;;;11.70;11.20;;;13.20;1.00;;;;;;4860729;29;20987;-44
2023/10/26 08:42:47;;;;;;;11.40;10.90;;;13.10;1.00;;;;;;4845870;29;20663;-44
2023/10/26 08:45:21;;;;;;;11.00;10.50;;;13.20;1.00;;;;;;4863769;29;20434;-42
2023/10/26 08:47:49;;;;;;;11.20;10.70;;;13.10;1.00;;;;;;4861478;29;20513;-40
2023/10/26 08:50:16;;;;;;;11.70;11.10;;;13.20;1.00;;;;;;4853764;29;20428;-40
2023/10/26 08:52:42;;;;;;;11.07;10.57;;;13.00;1.00;;;;;;4865573;29;20433;-41
2023/10/26 08:55:08;;;;;;;11.87;11.37;;;13.10;1.00;;;;;;4865190;29;20463;-47
2023/10/26 08:57:45;;;;;;;11.60;11.10;;;13.10;1.00;;;;;;4859506;29;20216;-41
2023/10/26 09:00:11;;;;;;;11.40;10.90;;;13.10;1.00;;;;;;4855809;29;20535;-44
2023/10/26 09:02:38;;;;;;;11.20;10.70;;;13.10;1.00;;;;;;4861744;29;21031;-42
2023/10/26 09:05:04;;;;;;;11.83;11.23;;;13.10;1.00;;;;;;4839806;29;20500;-41
2023/10/26 09:07:30;;;;;;;11.37;10.77;;;13.10;1.00;;;;;;4855842;29;20857;-42
2023/10/26 09:09:56;;;;;;;11.60;11.10;;;13.10;1.00;;;;;;4858585;29;20448;-45
2023/10/26 09:12:22;;;;;;;11.00;10.50;;;13.10;1.00;;;;;;4856335;29;21109;-41
2023/10/26 09:15:01;;;;;;;11.90;11.30;;;13.10;1.00;;;;;;4859462;29;20770;-44
2023/10/26 09:17:28;;;;;;;12.10;11.50;;;13.20;1.00;;;;;;4853155;29;20212;-44
2023/10/26 09:19:54;;;;;;;11.80;11.20;;;13.30;1.00;;;;;;4857601;29;20958;-41
2023/10/26 09:22:38;;;;;;;12.43;11.83;;;13.30;1.00;;;;;;4857440;29;20511;-42
2023/10/26 09:25:08;;;;;;;12.70;12.10;;;13.30;1.00;;;;;;4854342;29;20472;-41
2023/10/26 09:27:37;;;;;;;12.03;11.47;;;13.40;1.00;;;;;;4863985;29;20428;-42
2023/10/26 09:30:04;;;;;;;11.90;11.30;;;13.40;1.00;;;;;;4850840;29;20447;-39
2023/10/26 09:32:34;;;;;;;11.60;11.10;;;13.40;1.00;;;;;;4850463;29;20540;-40
2023/10/26 09:35:00;;;;;;;12.77;12.17;;;13.30;1.00;;;;;;4859082;29;20412;-39
2023/10/26 09:37:26;;;;;;;12.60;12.00;;;13.40;1.00;;;;;;4862045;29;20821;-40
2023/10/26 09:39:52;;;;;;;11.73;11.13;;;13.50;1.00;;;;;;4860424;29;20516;-40
2023/10/26 09:42:19;;;;;;;12.20;11.60;;;13.40;1.00;;;;;;4865783;29;20184;-45
2023/10/26 09:44:45;;;;;;;12.70;12.10;;;13.40;1.00;;;;;;4862378;29;21304;-40
2023/10/26 09:47:11;;;;;;;11.97;11.27;;;13.40;1.00;;;;;;4857727;29;20568;-40
2023/10/26 09:49:37;;;;;;;11.77;11.17;;;13.40;1.00;;;;;;4839303;29;20504;-41
2023/10/26 09:52:03;;;;;;;11.73;11.13;;;13.50;1.00;;;;;;4848935;29;20420;-39
2023/10/26 09:54:32;;;;;;;11.87;11.27;;;13.50;1.00;;;;;;4855669;29;20431;-40
2023/10/26 09:57:25;;;;;;;11.77;11.17;;;13.60;1.00;;;;;;4863392;29;20474;-43
2023/10/26 09:59:53;;;;;;;11.90;11.30;;;13.60;1.00;;;;;;4856063;29;20713;-40
2023/10/26 10:02:20;;;;;;;12.13;11.53;;;13.40;1.00;;;;;;4837934;29;20970;-40
2023/10/26 10:04:47;;;;;;;12.23;11.63;;;13.40;1.00;;;;;;4857558;29;20488;-45
2023/10/26 10:07:17;;;;;;;12.40;11.80;;;13.40;1.00;;;;;;4857000;29;20424;-41
2023/10/26 10:10:01;;;;;;;12.57;11.97;;;13.50;1.00;;;;;;4860075;29;20417;-40
2023/10/26 10:12:26;;;;;;;12.70;12.10;;;13.60;1.00;;;;;;4854962;29;20500;-41
2023/10/26 10:14:54;;;;;;;12.00;11.40;;;13.60;1.00;;;;;;4857925;29;21045;-40
2023/10/26 10:17:22;;;;;;;12.03;11.43;;;13.60;1.00;;;;;;4855262;29;20234;-41
2023/10/26 10:20:14;;;;;;;12.00;11.40;;;13.60;1.00;;;;;;4856820;29;20535;-39
2023/10/26 10:22:50;;;;;;;12.10;11.50;;;13.80;1.00;;;;;;4856149;29;20453;-39
2023/10/26 10:25:19;;;;;;;12.30;11.70;;;13.80;1.00;;;;;;4859052;29;20853;-40
2023/10/26 10:27:50;;;;;;;11.63;11.13;;;13.90;1.00;;;;;;4856263;29;20991;-40
2023/10/26 10:30:21;;;;;;;12.53;11.83;;;14.00;1.00;;;;;;4851626;29;20832;-40
2023/10/26 10:32:48;;;;;;;11.90;11.30;;;13.90;1.00;;;;;;4860481;29;20795;-40
2023/10/26 10:35:26;;;;;;;12.03;11.43;;;14.00;1.00;;;;;;4851378;29;20441;-44
2023/10/26 10:38:11;;;;;;;12.20;11.60;;;14.10;1.00;;;;;;4851241;29;20471;-41
2023/10/26 10:40:38;;;;;;;11.70;11.20;;;14.20;1.00;;;;;;4856304;29;21125;-40
2023/10/26 10:43:04;;;;;;;12.43;11.83;;;14.20;1.00;;;;;;4855225;29;20479;-41
2023/10/26 10:45:30;;;;;;;12.10;11.60;;;14.40;1.00;;;;;;4853219;29;20445;-39
2023/10/26 10:47:55;;;;;;;12.23;11.63;;;14.60;99.90;;;;;;4855966;29;20926;-42
2023/10/26 10:50:26;;;;;;;12.27;11.67;;;14.60;99.90;;;;;;4859933;29;20279;-39
2023/10/26 10:52:53;;;;;;;12.20;11.67;;;14.70;99.90;;;;;;4851189;29;20644;-40
2023/10/26 10:55:25;;;;;;;12.27;11.60;;;14.80;99.90;;;;;;4849720;29;20440;-40
2023/10/26 10:57:58;;;;;;;12.53;11.93;;;14.90;1.00;;;;;;4835189;29;20437;-47
2023/10/26 11:00:25;;;;;;;11.10;10.50;;;14.80;1.00;;;;;;4860284;29;20713;-40
2023/10/26 11:02:57;;;;;;;12.50;11.90;;;14.70;96.10;;;;;;4846132;29;20895;-40
2023/10/26 11:05:37;;;;;;;11.80;11.30;;;14.70;99.90;;;;;;4862277;29;20623;-41
2023/10/26 11:08:07;;;;;;;12.10;11.50;;;14.60;99.90;;;;;;4853541;29;20447;-41
2023/10/26 11:10:36;;;;;;;12.20;11.43;;;14.80;15.20;;;;;;4866123;29;20755;-42
2023/10/26 11:13:03;;;;;;;11.57;11.07;;;14.60;99.90;;;;;;4843465;29;20440;-40
2023/10/26 11:15:32;;;;;;;12.50;11.90;;;14.50;54.60;;;;;;4861106;29;20444;-40
2023/10/26 11:17:58;;;;;;;12.40;11.83;;;14.40;1.00;;;;;;4852381;29;20785;-40
2023/10/26 11:20:38;;;;;;;12.10;11.50;;;14.30;99.90;;;;;;4865532;29;20912;-40
2023/10/26 11:23:08;;;;;;;11.57;11.07;;;14.20;99.90;;;;;;4863732;29;20854;-43
2023/10/26 11:25:33;;;;;;;11.70;11.10;;;14.20;99.90;;;;;;4864713;29;20522;-41
2023/10/26 11:28:00;;;;;;;11.77;11.27;;;14.20;99.90;;;;;;4864023;29;20440;-41
2023/10/26 11:30:25;;;;;;;11.13;10.63;;;14.30;99.90;;;;;;4863499;29;20447;-41
2023/10/26 11:32:51;;;;;;;12.20;11.60;;;14.30;99.90;;;;;;4863973;29;20939;-42
2023/10/26 11:35:17;;;;;;;11.90;11.40;;;14.40;1.00;;;;;;4857278;29;20371;-41
2023/10/26 11:37:55;;;;;;;12.00;11.50;;;14.40;1.00;;;;;;4863961;29;20187;-41
2023/10/26 11:40:29;;;;;;;11.93;11.43;;;14.60;1.00;;;;;;4867603;29;20179;-46
2023/10/26 11:43:05;;;;;;;11.70;11.20;;;14.80;40.20;;;;;;4865659;29;20908;-43
2023/10/26 11:45:47;;;;;;;11.60;11.10;;;14.90;99.90;;;;;;4867010;29;20793;-41
2023/10/26 11:48:29;;;;;;;10.40;9.90;;;15.20;16.90;;;;;;4857642;29;20729;-46
2023/10/26 11:50:55;;;;;;;11.00;10.50;;;15.30;1.00;;;;;;4857200;29;20445;-43
2023/10/26 11:53:22;;;;;;;10.60;10.17;;;15.40;1.00;;;;;;4852344;29;20441;-41
2023/10/26 11:55:49;;;;;;;11.30;10.80;;;15.80;1.00;;;;;;4854085;29;20799;-41
2023/10/26 11:58:15;;;;;;;12.07;11.57;;;16.00;99.90;;;;;;4853393;29;21004;-45
2023/10/26 12:00:42;;;;;;;11.00;10.50;;;16.00;9.00;;;;;;4855125;29;20448;-45
2023/10/26 12:03:08;;;;;;;11.67;11.17;;;16.00;22.60;;;;;;4840488;29;20195;-43
2023/10/26 12:05:34;;;;;;;11.40;10.90;;;15.60;1.00;;;;;;4850188;29;20504;-40
2023/10/26 12:08:00;;;;;;;11.50;11.00;;;15.40;99.90;;;;;;4860828;29;20425;-44
2023/10/26 12:10:26;;;;;;;11.40;10.90;;;15.10;99.90;;;;;;4859674;29;20855;-42
2023/10/26 12:12:52;;;;;;;11.40;10.90;;;15.20;99.90;;;;;;4862613;29;21023;-40
2023/10/26 12:15:20;;;;;;;12.03;11.53;;;15.20;99.90;;;;;;4865057;29;20459;-40
2023/10/26 12:17:45;;;;;;;11.53;11.03;;;14.90;99.90;;;;;;4864066;29;20498;-40
2023/10/26 12:20:11;;;;;;;12.77;12.17;;;15.00;1.00;;;;;;4852875;29;20551;-40
2023/10/26 12:22:37;;;;;;;12.57;11.97;;;14.80;1.00;;;;;;4851501;29;20660;-41
2023/10/26 12:25:10;;;;;;;12.20;11.70;;;14.60;99.90;;;;;;4853921;29;20204;-41
2023/10/26 12:27:37;;;;;;;12.70;12.10;;;14.50;99.90;;;;;;4865994;29;20624;-40
2023/10/26 12:30:04;;;;;;;12.93;12.33;;;14.40;99.90;;;;;;4856887;29;21186;-40